Time;durP1;ratioP1;P1;durP2;ratioP2;P2;SDS_P1;SDS_P2;PMS_P1;PMS_P2;Temp;Humidity;BMP_temperature;BMP_pressure;BME280_temperature;BME280_humidity;BME280_pressure;Samples;Min_cycle;Max_cycle;Signal;HPM_P1;HPM_P2
2023/04/18 00:00:04;;;;;;;16.47;12.83;;;7.00;99.90;;;;;;5074497;28;20201;-72
2023/04/18 00:02:32;;;;;;;14.07;12.30;;;7.10;99.90;;;;;;5074096;28;20228;-73
2023/04/18 00:04:58;;;;;;;15.70;12.83;;;7.10;99.90;;;;;;5074211;28;20204;-72
2023/04/18 00:07:25;;;;;;;14.53;12.17;;;7.00;99.90;;;;;;5074075;28;20310;-72
2023/04/18 00:09:52;;;;;;;14.80;12.43;;;7.10;99.90;;;;;;5073954;28;20660;-72
2023/04/18 00:12:20;;;;;;;14.20;12.70;;;7.10;99.90;;;;;;5073923;28;20239;-73
2023/04/18 00:14:49;;;;;;;14.47;12.13;;;7.10;99.90;;;;;;5073821;28;20256;-72
2023/04/18 00:17:15;;;;;;;13.27;11.87;;;7.00;99.90;;;;;;5073802;28;20205;-72
2023/04/18 00:19:42;;;;;;;13.43;11.47;;;7.00;99.90;;;;;;5073640;28;20193;-72
2023/04/18 00:22:09;;;;;;;16.40;12.23;;;7.00;99.90;;;;;;5073700;28;20220;-73
2023/04/18 00:24:36;;;;;;;13.00;11.60;;;7.00;99.90;;;;;;5073793;28;20346;-72
2023/04/18 00:27:02;;;;;;;13.47;11.83;;;6.90;99.90;;;;;;5073482;28;20225;-73
2023/04/18 00:29:31;;;;;;;14.57;11.93;;;6.90;99.90;;;;;;5073469;28;20235;-72
2023/04/18 00:31:57;;;;;;;12.70;11.30;;;6.90;99.90;;;;;;5073407;28;20204;-72
2023/04/18 00:34:24;;;;;;;15.67;11.30;;;6.90;99.90;;;;;;5073159;28;20295;-72
2023/04/18 00:36:51;;;;;;;13.43;11.43;;;6.80;99.90;;;;;;5073517;28;20221;-73
2023/04/18 00:39:17;;;;;;;13.33;11.47;;;6.80;99.90;;;;;;5073459;28;20232;-73
2023/04/18 00:41:44;;;;;;;13.87;11.40;;;6.80;99.90;;;;;;5073308;28;20232;-73
2023/04/18 00:44:10;;;;;;;17.87;12.20;;;6.70;99.90;;;;;;5073306;28;20204;-73
2023/04/18 00:46:38;;;;;;;13.77;11.70;;;6.70;99.90;;;;;;5073158;28;20236;-72
2023/04/18 00:49:06;;;;;;;13.37;11.80;;;6.60;99.90;;;;;;5073416;28;20193;-72
2023/04/18 00:51:34;;;;;;;14.10;11.73;;;6.60;99.90;;;;;;5072549;28;20568;-73
2023/04/18 00:54:01;;;;;;;15.33;12.53;;;6.50;99.90;;;;;;5073008;28;20276;-73
2023/04/18 00:56:28;;;;;;;14.90;12.63;;;6.50;99.90;;;;;;5072985;28;20542;-73
2023/04/18 00:58:56;;;;;;;15.13;11.70;;;6.40;99.90;;;;;;5072741;28;20228;-72
2023/04/18 01:01:23;;;;;;;16.40;12.27;;;6.30;99.90;;;;;;5072837;28;20581;-72
2023/04/18 01:03:50;;;;;;;13.83;12.10;;;6.20;99.90;;;;;;5073083;28;20201;-73
2023/04/18 01:06:17;;;;;;;16.00;12.43;;;6.20;99.90;;;;;;5072929;28;20662;-73
2023/04/18 01:08:45;;;;;;;15.03;11.77;;;6.10;99.90;;;;;;5073051;28;20232;-73
2023/04/18 01:11:12;;;;;;;13.43;12.03;;;6.10;99.90;;;;;;5072786;28;20200;-73
2023/04/18 01:13:38;;;;;;;15.67;12.17;;;6.00;99.90;;;;;;5072815;28;20266;-73
2023/04/18 01:16:05;;;;;;;17.17;12.63;;;6.00;99.90;;;;;;5072949;28;20248;-73
2023/04/18 01:18:33;;;;;;;17.17;13.07;;;5.90;99.90;;;;;;5072902;28;20224;-73
2023/04/18 01:21:02;;;;;;;17.60;12.80;;;5.80;99.90;;;;;;5072720;28;20200;-72
2023/04/18 01:23:29;;;;;;;16.97;13.70;;;5.70;99.90;;;;;;5072740;28;20204;-72
2023/04/18 01:25:57;;;;;;;15.97;12.73;;;5.60;99.90;;;;;;5072473;28;20632;-73
2023/04/18 01:28:26;;;;;;;15.40;12.23;;;5.50;99.90;;;;;;5072458;28;20197;-73
2023/04/18 01:30:53;;;;;;;16.70;13.67;;;5.30;99.90;;;;;;5072691;28;20266;-72
2023/04/18 01:33:19;;;;;;;16.13;13.17;;;5.20;99.90;;;;;;5072555;28;20201;-72
2023/04/18 01:35:46;;;;;;;16.07;12.87;;;5.10;99.90;;;;;;5072266;28;20247;-71
2023/04/18 01:38:13;;;;;;;17.17;12.70;;;5.20;99.90;;;;;;5072505;28;20251;-72
2023/04/18 01:40:39;;;;;;;20.47;13.80;;;5.20;99.90;;;;;;5072369;28;20236;-72
2023/04/18 01:43:07;;;;;;;20.77;14.00;;;5.20;99.90;;;;;;5072340;28;20228;-72
2023/04/18 01:45:34;;;;;;;16.73;13.63;;;5.20;99.90;;;;;;5072570;28;20236;-72
2023/04/18 01:48:00;;;;;;;18.63;13.70;;;5.20;99.90;;;;;;5072466;28;20534;-72
2023/04/18 01:50:27;;;;;;;20.13;15.10;;;5.20;99.90;;;;;;5072338;28;20243;-72
2023/04/18 01:52:53;;;;;;;19.13;14.43;;;5.20;99.90;;;;;;5072227;28;20224;-72
2023/04/18 01:55:20;;;;;;;17.30;14.23;;;5.20;99.90;;;;;;5072303;28;20252;-72
2023/04/18 01:57:47;;;;;;;21.20;15.60;;;5.30;99.90;;;;;;5072765;28;20241;-72
2023/04/18 02:00:15;;;;;;;19.43;15.33;;;5.30;99.90;;;;;;5072235;28;20509;-72
2023/04/18 02:02:42;;;;;;;20.33;14.87;;;5.30;99.90;;;;;;5073589;28;20193;-72
2023/04/18 02:05:09;;;;;;;18.33;14.03;;;5.30;99.90;;;;;;5076325;28;20235;-72
2023/04/18 02:07:36;;;;;;;18.17;14.80;;;5.30;99.90;;;;;;5076262;28;20197;-72
2023/04/18 02:10:02;;;;;;;18.73;14.97;;;5.30;99.90;;;;;;5076326;28;20656;-72
2023/04/18 02:12:29;;;;;;;23.30;14.50;;;5.30;99.90;;;;;;5076166;28;20737;-72
2023/04/18 02:14:56;;;;;;;18.10;13.87;;;5.30;99.90;;;;;;5076433;28;20256;-72
2023/04/18 02:17:24;;;;;;;18.03;14.17;;;5.30;99.90;;;;;;5076164;28;20623;-72
2023/04/18 02:19:50;;;;;;;17.43;14.10;;;5.30;99.90;;;;;;5076032;28;20225;-72
2023/04/18 02:22:17;;;;;;;17.40;14.33;;;5.20;99.90;;;;;;5076084;28;20197;-72
2023/04/18 02:24:44;;;;;;;19.23;13.83;;;5.30;99.90;;;;;;5075895;28;20276;-72
2023/04/18 02:27:11;;;;;;;17.63;13.70;;;5.30;99.90;;;;;;5075756;28;20672;-72
2023/04/18 02:29:38;;;;;;;21.40;14.43;;;5.40;99.90;;;;;;5076079;28;20229;-72
2023/04/18 02:32:05;;;;;;;17.90;14.73;;;5.40;99.90;;;;;;5075856;28;20232;-72
2023/04/18 02:34:33;;;;;;;22.13;14.03;;;5.40;99.90;;;;;;5075520;28;20268;-72
2023/04/18 02:36:59;;;;;;;18.23;14.63;;;5.50;99.90;;;;;;5075645;28;20232;-72
2023/04/18 02:39:26;;;;;;;18.23;14.57;;;5.50;99.90;;;;;;5075531;28;20205;-72
2023/04/18 02:41:53;;;;;;;18.53;14.43;;;5.50;99.90;;;;;;5076012;28;20236;-72
2023/04/18 02:44:19;;;;;;;16.27;13.03;;;5.60;99.90;;;;;;5075717;28;20244;-74
2023/04/18 02:46:46;;;;;;;15.37;13.57;;;5.60;99.90;;;;;;5075596;28;20239;-72
2023/04/18 02:49:13;;;;;;;15.00;13.13;;;5.60;99.90;;;;;;5075552;28;20229;-72
2023/04/18 02:51:41;;;;;;;17.87;12.97;;;5.60;99.90;;;;;;5075413;28;20201;-72
2023/04/18 02:54:07;;;;;;;15.90;13.57;;;5.60;99.90;;;;;;5075558;28;20599;-71
2023/04/18 02:56:38;;;;;;;17.47;13.70;;;5.60;99.90;;;;;;5075262;28;20529;-72
2023/04/18 02:59:05;;;;;;;14.50;12.77;;;5.70;99.90;;;;;;5075629;28;20193;-72
2023/04/18 03:01:32;;;;;;;17.33;13.33;;;5.70;99.90;;;;;;5075247;28;20225;-72
2023/04/18 03:03:58;;;;;;;16.80;13.23;;;5.70;99.90;;;;;;5075130;28;20249;-72
2023/04/18 03:06:26;;;;;;;20.70;13.47;;;5.70;99.90;;;;;;5075316;28;20835;-72
2023/04/18 03:08:54;;;;;;;16.23;12.83;;;5.70;99.90;;;;;;5075489;28;20201;-71
2023/04/18 03:11:21;;;;;;;15.53;13.30;;;5.80;99.90;;;;;;5075562;28;20229;-72
2023/04/18 03:13:47;;;;;;;16.43;13.53;;;5.80;99.90;;;;;;5074950;28;20628;-71
2023/04/18 03:16:14;;;;;;;17.73;13.70;;;5.80;99.90;;;;;;5074670;28;20261;-73
2023/04/18 03:18:41;;;;;;;17.47;13.73;;;5.90;99.90;;;;;;5075026;28;20755;-72
2023/04/18 03:21:07;;;;;;;17.70;14.20;;;5.80;99.90;;;;;;5075047;28;20235;-72
2023/04/18 03:23:34;;;;;;;17.03;13.37;;;5.80;99.90;;;;;;5075271;28;20228;-71
2023/04/18 03:26:02;;;;;;;17.57;12.67;;;5.80;99.90;;;;;;5075044;28;20232;-72
2023/04/18 03:28:29;;;;;;;18.33;14.27;;;5.90;99.90;;;;;;5075005;28;20209;-72
2023/04/18 03:30:55;;;;;;;17.67;12.97;;;5.80;99.90;;;;;;5074922;28;20660;-72
2023/04/18 03:33:22;;;;;;;17.30;13.30;;;5.90;99.90;;;;;;5074822;28;20232;-72
2023/04/18 03:35:49;;;;;;;17.13;13.57;;;5.90;99.90;;;;;;5074788;28;20629;-72
2023/04/18 03:38:16;;;;;;;17.43;14.17;;;5.90;99.90;;;;;;5074829;28;20224;-72
2023/04/18 03:40:43;;;;;;;18.07;14.00;;;5.90;99.90;;;;;;5074726;28;20232;-71
2023/04/18 03:43:11;;;;;;;17.70;13.97;;;5.90;99.90;;;;;;5074717;28;20197;-71
2023/04/18 03:45:38;;;;;;;16.60;13.13;;;5.90;99.90;;;;;;5074634;28;20205;-72
2023/04/18 03:48:05;;;;;;;18.53;13.83;;;5.90;99.90;;;;;;5074418;28;20201;-72
2023/04/18 03:50:31;;;;;;;19.50;15.00;;;5.90;99.90;;;;;;5074693;28;20228;-72
2023/04/18 03:52:58;;;;;;;17.03;13.43;;;5.90;99.90;;;;;;5074681;28;20297;-71
2023/04/18 03:55:26;;;;;;;16.37;13.07;;;5.90;99.90;;;;;;5074438;28;20259;-72
2023/04/18 03:57:52;;;;;;;16.87;13.53;;;5.90;99.90;;;;;;5074329;28;20204;-72
2023/04/18 04:00:20;;;;;;;19.60;14.20;;;5.90;99.90;;;;;;5074215;28;20652;-72
2023/04/18 04:02:47;;;;;;;16.77;13.50;;;5.90;99.90;;;;;;5074162;28;20225;-73
2023/04/18 04:05:13;;;;;;;19.50;13.60;;;5.90;99.90;;;;;;5074370;28;20232;-72
2023/04/18 04:07:40;;;;;;;18.83;13.83;;;6.00;99.90;;;;;;5074287;28;20232;-72
2023/04/18 04:10:07;;;;;;;16.67;13.70;;;5.90;99.90;;;;;;5074126;28;20228;-72
2023/04/18 04:12:34;;;;;;;17.83;13.87;;;5.90;99.90;;;;;;5073937;28;20197;-72
2023/04/18 04:15:01;;;;;;;18.57;14.13;;;5.90;99.90;;;;;;5073754;28;20220;-72
2023/04/18 04:17:29;;;;;;;16.47;13.20;;;5.90;99.90;;;;;;5074189;28;20201;-72
2023/04/18 04:19:55;;;;;;;17.20;13.83;;;5.90;99.90;;;;;;5073994;28;20239;-72
2023/04/18 04:22:22;;;;;;;16.03;13.93;;;5.90;99.90;;;;;;5073972;28;20224;-72
2023/04/18 04:24:49;;;;;;;17.20;13.23;;;5.90;99.90;;;;;;5073941;28;20247;-72
2023/04/18 04:27:17;;;;;;;16.97;13.17;;;5.90;99.90;;;;;;5072640;28;20714;-71
2023/04/18 04:29:44;;;;;;;18.93;13.67;;;5.90;99.90;;;;;;5073827;28;20208;-72
2023/04/18 04:32:11;;;;;;;17.83;13.87;;;5.90;99.90;;;;;;5073828;28;20618;-71
2023/04/18 04:34:40;;;;;;;17.00;13.57;;;5.90;99.90;;;;;;5073274;28;20247;-71
2023/04/18 04:37:07;;;;;;;17.87;14.50;;;5.90;99.90;;;;;;5073514;28;20193;-72
2023/04/18 04:39:34;;;;;;;18.47;13.67;;;5.90;99.90;;;;;;5073134;28;20660;-72
2023/04/18 04:42:02;;;;;;;17.47;14.00;;;6.00;99.90;;;;;;5073166;28;20236;-72
2023/04/18 04:44:30;;;;;;;16.93;13.93;;;5.90;99.90;;;;;;5073003;28;20230;-72
2023/04/18 04:46:56;;;;;;;18.77;13.87;;;6.00;99.90;;;;;;5073286;28;20194;-72
2023/04/18 04:49:23;;;;;;;17.63;13.70;;;6.00;99.90;;;;;;5073376;28;20228;-71
2023/04/18 04:51:51;;;;;;;18.83;13.70;;;6.00;99.90;;;;;;5073134;28;20201;-71
2023/04/18 04:54:17;;;;;;;17.17;13.83;;;6.10;99.90;;;;;;5073030;28;20228;-72
2023/04/18 04:56:44;;;;;;;16.93;13.67;;;6.10;99.90;;;;;;5072884;28;20618;-72
2023/04/18 04:59:11;;;;;;;21.87;14.60;;;6.10;99.90;;;;;;5073029;28;20255;-72
2023/04/18 05:01:37;;;;;;;21.37;16.13;;;6.10;99.90;;;;;;5073358;28;20204;-73
2023/04/18 05:04:04;;;;;;;19.93;14.53;;;6.20;99.90;;;;;;5072986;28;20648;-72
2023/04/18 05:06:31;;;;;;;18.43;14.37;;;6.20;99.90;;;;;;5072964;28;20240;-73
2023/04/18 05:08:59;;;;;;;19.33;13.83;;;6.20;99.90;;;;;;5072756;28;20197;-73
2023/04/18 05:11:26;;;;;;;16.83;13.57;;;6.20;99.90;;;;;;5072712;28;20201;-73
2023/04/18 05:13:53;;;;;;;17.57;13.30;;;6.20;99.90;;;;;;5073062;28;20312;-73
2023/04/18 05:16:20;;;;;;;17.23;13.37;;;6.20;99.90;;;;;;5072828;28;20267;-73
2023/04/18 05:18:46;;;;;;;19.13;14.00;;;6.20;99.90;;;;;;5072837;28;20231;-73
2023/04/18 05:21:13;;;;;;;17.63;13.43;;;6.30;99.90;;;;;;5072625;28;20204;-73
2023/04/18 05:23:40;;;;;;;19.37;14.80;;;6.30;99.90;;;;;;5072633;28;20228;-73
2023/04/18 05:26:08;;;;;;;16.50;13.07;;;6.40;99.90;;;;;;5072935;28;20236;-73
2023/04/18 05:28:34;;;;;;;17.13;13.10;;;6.40;99.90;;;;;;5072793;28;20224;-73
2023/04/18 05:31:01;;;;;;;16.80;13.97;;;6.50;99.90;;;;;;5072662;28;20236;-73
2023/04/18 05:33:28;;;;;;;17.00;13.53;;;6.60;99.90;;;;;;5072621;28;20232;-73
2023/04/18 05:35:55;;;;;;;17.10;13.63;;;6.70;99.90;;;;;;5072525;28;20233;-73
2023/04/18 05:38:21;;;;;;;23.20;14.67;;;6.70;99.90;;;;;;5072096;28;20200;-73
2023/04/18 05:40:49;;;;;;;18.03;13.90;;;6.80;99.90;;;;;;5072764;28;20236;-74
2023/04/18 05:43:17;;;;;;;17.53;13.93;;;6.90;99.90;;;;;;5072616;28;20204;-72
2023/04/18 05:45:44;;;;;;;20.50;13.73;;;6.90;99.90;;;;;;5072651;28;20231;-73
2023/04/18 05:48:11;;;;;;;17.17;13.93;;;7.00;99.90;;;;;;5072679;28;20557;-74
2023/04/18 05:50:38;;;;;;;20.07;14.40;;;7.00;99.90;;;;;;5072530;28;20243;-73
2023/04/18 05:53:04;;;;;;;26.83;14.43;;;7.10;99.90;;;;;;5072370;28;20224;-73
2023/04/18 05:55:31;;;;;;;45.03;16.83;;;7.10;99.90;;;;;;5072608;28;20280;-73
2023/04/18 05:57:57;;;;;;;19.93;15.37;;;7.20;99.90;;;;;;5072678;28;20254;-74
2023/04/18 06:00:26;;;;;;;17.10;13.60;;;7.20;99.90;;;;;;5072475;28;20236;-74
2023/04/18 06:02:52;;;;;;;20.67;14.63;;;7.30;99.90;;;;;;5072332;28;20196;-75
2023/04/18 06:05:19;;;;;;;21.73;14.63;;;7.40;99.90;;;;;;5072352;28;20247;-73
2023/04/18 06:07:47;;;;;;;23.93;15.30;;;7.50;99.90;;;;;;5072267;28;20219;-71
2023/04/18 06:10:14;;;;;;;19.00;14.03;;;7.60;99.90;;;;;;5072555;28;20193;-72
2023/04/18 06:12:41;;;;;;;20.03;14.03;;;7.80;99.90;;;;;;5073128;28;20197;-71
2023/04/18 06:15:09;;;;;;;24.47;14.47;;;8.00;99.90;;;;;;5072596;28;20288;-76
2023/04/18 06:17:37;;;;;;;28.43;15.73;;;8.20;99.90;;;;;;5072233;28;20628;-73
2023/04/18 06:20:05;;;;;;;23.93;16.07;;;8.30;99.90;;;;;;5072568;28;20193;-74
2023/04/18 06:22:32;;;;;;;21.77;15.90;;;8.30;99.90;;;;;;5072785;28;20201;-74
2023/04/18 06:24:59;;;;;;;25.63;15.90;;;8.30;99.90;;;;;;5072783;28;20291;-75
2023/04/18 06:27:26;;;;;;;22.20;15.20;;;8.30;99.90;;;;;;5072285;28;20197;-73
2023/04/18 06:29:52;;;;;;;25.07;15.20;;;8.30;99.90;;;;;;5072125;28;20236;-73
2023/04/18 06:32:19;;;;;;;21.80;16.00;;;8.30;99.90;;;;;;5072280;28;20237;-73
2023/04/18 06:34:47;;;;;;;21.50;15.10;;;8.40;99.90;;;;;;5071891;28;20224;-73
2023/04/18 06:37:14;;;;;;;19.97;15.30;;;8.50;99.90;;;;;;5072052;28;20231;-75
2023/04/18 06:39:40;;;;;;;19.03;14.50;;;8.60;99.90;;;;;;5072126;28;20201;-74
2023/04/18 06:42:07;;;;;;;17.83;14.60;;;8.60;99.90;;;;;;5072084;28;20247;-73
2023/04/18 06:44:34;;;;;;;16.97;15.03;;;8.70;99.90;;;;;;5071991;28;20627;-74
2023/04/18 06:47:01;;;;;;;19.30;15.03;;;8.90;99.90;;;;;;5072081;28;20307;-73
2023/04/18 06:49:28;;;;;;;18.73;14.97;;;9.00;99.90;;;;;;5072360;28;20227;-74
2023/04/18 06:51:56;;;;;;;17.77;13.93;;;8.90;99.90;;;;;;5075680;28;20197;-74
2023/04/18 06:54:22;;;;;;;19.27;15.10;;;9.00;99.90;;;;;;5075516;28;20250;-74
2023/04/18 06:56:49;;;;;;;23.67;15.73;;;9.00;99.90;;;;;;5075376;28;20260;-75
2023/04/18 06:59:15;;;;;;;25.33;14.70;;;9.00;99.90;;;;;;5075433;28;20262;-74
2023/04/18 07:01:42;;;;;;;43.93;16.17;;;9.00;99.90;;;;;;5074916;28;20244;-75
2023/04/18 07:04:09;;;;;;;22.70;14.57;;;9.10;99.90;;;;;;5075287;28;20205;-74
2023/04/18 07:06:36;;;;;;;20.73;15.30;;;9.40;99.90;;;;;;5074110;28;20615;-73
2023/04/18 07:09:04;;;;;;;20.23;15.60;;;9.30;99.90;;;;;;5074821;28;20229;-73
2023/04/18 07:11:30;;;;;;;20.10;15.07;;;9.30;99.90;;;;;;5075091;28;20239;-73
2023/04/18 07:13:57;;;;;;;25.10;15.27;;;9.50;99.90;;;;;;5075037;28;20655;-73
2023/04/18 07:16:23;;;;;;;19.13;14.93;;;9.80;99.90;;;;;;5074881;28;20704;-72
2023/04/18 07:18:51;;;;;;;19.70;14.63;;;9.90;99.90;;;;;;5075696;28;20638;-81
2023/04/18 07:21:18;;;;;;;18.77;14.83;;;10.00;99.90;;;;;;5075183;28;20683;-74
2023/04/18 07:23:45;;;;;;;25.57;16.03;;;10.10;99.90;;;;;;5074988;28;20244;-74
2023/04/18 07:26:13;;;;;;;22.60;14.97;;;10.20;99.90;;;;;;5074960;28;20209;-74
2023/04/18 07:28:40;;;;;;;21.83;14.87;;;10.20;99.90;;;;;;5074890;28;20200;-72
2023/04/18 07:31:10;;;;;;;18.17;15.30;;;10.30;99.90;;;;;;5074590;28;20197;-74
2023/04/18 07:33:37;;;;;;;19.40;14.67;;;10.20;99.90;;;;;;5074807;28;20197;-74
2023/04/18 07:36:04;;;;;;;18.70;15.37;;;10.30;99.90;;;;;;5074633;28;20679;-73
2023/04/18 07:38:30;;;;;;;20.70;15.70;;;10.60;99.90;;;;;;5074750;28;20235;-73
2023/04/18 07:40:58;;;;;;;19.63;15.17;;;10.70;99.90;;;;;;5074581;28;20598;-74
2023/04/18 07:43:26;;;;;;;17.93;14.73;;;10.80;99.90;;;;;;5074448;28;20193;-73
2023/04/18 07:45:53;;;;;;;17.40;13.77;;;11.10;99.90;;;;;;5074794;28;20204;-72
2023/04/18 07:48:21;;;;;;;20.50;14.27;;;11.30;99.90;;;;;;5074657;28;20287;-74
2023/04/18 07:50:48;;;;;;;20.20;15.07;;;11.30;99.90;;;;;;5073916;28;20203;-73
2023/04/18 07:53:14;;;;;;;19.37;15.20;;;11.40;99.90;;;;;;5073526;28;20197;-74
2023/04/18 07:55:42;;;;;;;21.60;15.57;;;11.40;99.90;;;;;;5074067;28;20279;-73
2023/04/18 07:58:09;;;;;;;20.33;15.20;;;11.10;99.90;;;;;;5073932;28;20204;-73
2023/04/18 08:00:38;;;;;;;18.83;15.10;;;11.20;99.90;;;;;;5073851;28;20209;-74
2023/04/18 08:03:06;;;;;;;20.20;15.37;;;11.60;99.90;;;;;;5067112;28;20206;-76
2023/04/18 08:05:33;;;;;;;20.87;16.00;;;11.90;99.90;;;;;;5068940;28;20225;-76
2023/04/18 08:08:00;;;;;;;21.60;15.97;;;12.10;99.90;;;;;;5073913;28;20659;-75
2023/04/18 08:10:27;;;;;;;18.87;15.03;;;12.20;99.90;;;;;;5073621;28;20224;-75
2023/04/18 08:12:53;;;;;;;19.17;14.90;;;12.40;99.90;;;;;;5073815;28;20229;-74
2023/04/18 08:15:20;;;;;;;18.03;15.23;;;12.40;99.90;;;;;;5073776;28;20224;-75
2023/04/18 08:17:48;;;;;;;27.23;15.60;;;12.40;99.90;;;;;;5073534;28;20311;-75
2023/04/18 08:20:15;;;;;;;17.93;15.70;;;12.60;99.90;;;;;;5067816;28;20297;-74
2023/04/18 08:22:42;;;;;;;19.03;15.63;;;12.80;99.90;;;;;;5058195;28;20534;-75
2023/04/18 08:25:09;;;;;;;16.80;14.43;;;12.90;99.90;;;;;;5073351;28;20292;-75
2023/04/18 08:27:36;;;;;;;18.80;15.50;;;12.90;99.90;;;;;;5073620;28;20231;-73
2023/04/18 08:30:03;;;;;;;17.17;14.47;;;13.10;99.90;;;;;;5073742;28;20204;-76
2023/04/18 08:32:30;;;;;;;16.33;14.33;;;12.80;99.90;;;;;;5073571;28;20319;-75
2023/04/18 08:34:58;;;;;;;18.67;13.93;;;13.00;99.90;;;;;;5073428;28;20652;-76
2023/04/18 08:37:26;;;;;;;20.40;14.63;;;13.20;99.90;;;;;;5073290;28;20275;-74
2023/04/18 08:39:53;;;;;;;19.17;15.07;;;13.60;99.90;;;;;;5073351;28;20201;-72
2023/04/18 08:42:21;;;;;;;27.90;15.33;;;13.60;99.90;;;;;;5073123;28;20630;-76
2023/04/18 08:44:48;;;;;;;16.50;13.90;;;14.00;99.90;;;;;;5073188;28;20231;-74
2023/04/18 08:47:15;;;;;;;19.83;14.07;;;14.10;99.90;;;;;;5073349;28;20270;-77
2023/04/18 08:49:42;;;;;;;19.07;12.97;;;14.20;99.90;;;;;;5073398;28;20239;-74
2023/04/18 08:52:13;;;;;;;14.20;12.70;;;14.50;99.90;;;;;;5073216;28;20205;-76
2023/04/18 08:54:41;;;;;;;19.40;14.10;;;14.70;99.90;;;;;;5073452;28;20200;-75
2023/04/18 08:57:11;;;;;;;15.82;13.32;;;14.90;99.90;;;;;;5073086;28;20221;-78
2023/04/18 08:59:38;;;;;;;13.93;12.45;;;15.00;99.90;;;;;;5073207;28;20271;-76
2023/04/18 09:02:07;;;;;;;14.93;12.80;;;15.30;99.90;;;;;;5073386;28;20220;-77
2023/04/18 09:04:36;;;;;;;15.90;13.45;;;14.90;99.90;;;;;;5072944;28;20272;-76
2023/04/18 09:07:04;;;;;;;14.70;13.13;;;14.60;99.90;;;;;;5073276;28;20622;-76
2023/04/18 09:09:43;;;;;;;16.40;13.75;;;14.30;99.90;;;;;;5073204;28;20204;-76
2023/04/18 09:12:13;;;;;;;14.32;12.48;;;14.20;99.90;;;;;;5072431;28;20595;-76
2023/04/18 09:14:43;;;;;;;13.70;12.30;;;14.60;99.90;;;;;;5072957;28;20201;-76
2023/04/18 09:17:11;;;;;;;15.50;12.77;;;14.80;99.90;;;;;;5072844;28;20217;-75
2023/04/18 09:19:47;;;;;;;14.43;12.93;;;15.10;99.90;;;;;;5073193;28;20235;-76
2023/04/18 09:22:15;;;;;;;14.25;12.63;;;15.50;99.90;;;;;;5072083;28;20192;-76
2023/04/18 09:24:52;;;;;;;13.05;11.68;;;15.90;99.90;;;;;;5072892;28;20200;-77
2023/04/18 09:27:21;;;;;;;13.38;11.82;;;16.00;99.90;;;;;;5072850;28;20333;-77
2023/04/18 09:29:50;;;;;;;14.68;12.60;;;16.00;99.90;;;;;;5072894;28;20200;-76
2023/04/18 09:32:23;;;;;;;12.65;11.05;;;16.00;99.90;;;;;;5073012;28;20288;-75
2023/04/18 09:34:53;;;;;;;13.05;11.75;;;15.70;99.90;;;;;;5072888;28;20324;-76
2023/04/18 09:37:20;;;;;;;12.70;11.40;;;15.90;99.90;;;;;;5072712;28;20224;-75
2023/04/18 09:39:49;;;;;;;12.20;11.00;;;16.00;99.90;;;;;;5072554;28;20288;-76
2023/04/18 09:42:16;;;;;;;13.20;11.90;;;16.10;99.90;;;;;;5072487;28;20197;-75
2023/04/18 09:45:04;;;;;;;12.15;10.95;;;16.40;99.90;;;;;;5072810;28;20198;-77
2023/04/18 09:47:33;;;;;;;12.30;10.85;;;16.60;99.90;;;;;;5072700;28;20220;-77
2023/04/18 09:50:00;;;;;;;12.13;10.82;;;16.70;99.90;;;;;;5072364;28;20632;-77
2023/04/18 09:52:32;;;;;;;11.43;10.18;;;17.00;99.90;;;;;;5072574;28;20220;-76
2023/04/18 09:55:02;;;;;;;10.93;9.82;;;17.50;99.90;;;;;;5072920;28;20220;-77
2023/04/18 09:57:30;;;;;;;11.50;10.30;;;17.20;99.90;;;;;;5072766;28;20229;-77
2023/04/18 10:00:05;;;;;;;12.73;9.75;;;17.60;99.90;;;;;;5072617;28;20225;-76
2023/04/18 10:02:39;;;;;;;11.18;10.18;;;17.60;99.90;;;;;;5072639;28;20669;-76
2023/04/18 10:05:07;;;;;;;11.25;10.15;;;17.30;99.90;;;;;;5072512;28;20258;-76
2023/04/18 10:07:35;;;;;;;11.23;10.02;;;16.90;99.90;;;;;;5072770;28;20197;-76
2023/04/18 10:10:03;;;;;;;11.20;10.05;;;16.60;99.90;;;;;;5072728;28;20197;-75
2023/04/18 10:12:30;;;;;;;10.48;9.48;;;16.60;99.90;;;;;;5072564;28;20250;-76
2023/04/18 10:14:57;;;;;;;10.65;9.65;;;16.60;99.90;;;;;;5072201;28;20213;-75
2023/04/18 10:17:23;;;;;;;10.63;9.63;;;16.80;99.90;;;;;;5071625;28;20260;-78
2023/04/18 10:20:05;;;;;;;10.10;9.13;;;16.90;99.90;;;;;;5072133;28;20546;-76
2023/04/18 10:22:34;;;;;;;10.77;9.73;;;16.70;99.90;;;;;;5072057;28;20208;-77
2023/04/18 10:25:00;;;;;;;10.77;9.77;;;16.10;99.90;;;;;;5073939;28;20193;-76
2023/04/18 10:27:57;;;;;;;10.52;9.52;;;15.60;99.90;;;;;;5076051;28;20251;-78
2023/04/18 10:30:55;;;;;;;10.82;9.80;;;15.30;99.90;;;;;;5075970;28;20736;-76
2023/04/18 10:33:29;;;;;;;10.95;9.93;;;14.90;99.90;;;;;;5076338;28;20215;-76
2023/04/18 10:35:56;;;;;;;10.50;9.50;;;14.80;99.90;;;;;;5078018;28;20235;-76
2023/04/18 10:38:24;;;;;;;10.70;9.70;;;14.50;99.90;;;;;;5075688;28;20272;-77
2023/04/18 10:40:51;;;;;;;10.68;9.68;;;14.40;99.90;;;;;;5075707;28;20200;-77
2023/04/18 10:43:19;;;;;;;10.98;9.63;;;14.10;99.90;;;;;;5075889;28;20239;-79
2023/04/18 10:46:05;;;;;;;12.43;10.70;;;14.10;99.90;;;;;;5075654;28;20254;-76
2023/04/18 10:48:34;;;;;;;11.57;10.47;;;13.90;99.90;;;;;;5075341;28;20714;-76
2023/04/18 10:51:15;;;;;;;10.98;9.77;;;13.90;99.90;;;;;;5075381;28;20208;-76
2023/04/18 10:53:48;;;;;;;31.20;11.33;;;13.90;99.90;;;;;;5075085;28;20193;-75
2023/04/18 10:56:15;;;;;;;10.47;9.40;;;14.00;99.90;;;;;;5072290;28;20281;-78
2023/04/18 10:58:49;;;;;;;24.77;10.03;;;13.80;99.90;;;;;;5063436;28;20232;-77
2023/04/18 11:01:23;;;;;;;49.07;13.60;;;13.80;99.90;;;;;;5074602;28;20201;-77
2023/04/18 11:03:51;;;;;;;25.90;11.47;;;13.70;99.90;;;;;;5075047;28;20228;-76
2023/04/18 11:06:18;;;;;;;19.23;10.10;;;13.80;99.90;;;;;;5074814;28;20231;-75
2023/04/18 11:08:44;;;;;;;12.87;9.47;;;14.30;99.90;;;;;;5074669;28;20613;-76
2023/04/18 11:11:13;;;;;;;15.25;9.43;;;15.10;99.90;;;;;;5074737;28;20277;-78
2023/04/18 11:13:56;;;;;;;15.32;9.18;;;15.80;99.90;;;;;;5074504;28;20243;-76
2023/04/18 11:16:26;;;;;;;12.15;8.65;;;16.60;99.90;;;;;;5060521;28;20193;-74
2023/04/18 11:18:53;;;;;;;9.73;8.45;;;17.30;99.90;;;;;;5080525;28;20310;-74
2023/04/18 11:21:20;;;;;;;8.80;7.90;;;17.70;99.90;;;;;;5094689;28;20654;-75
2023/04/18 11:23:47;;;;;;;9.52;8.40;;;17.90;99.90;;;;;;5094933;28;20231;-74
2023/04/18 11:26:16;;;;;;;8.68;7.78;;;18.00;99.90;;;;;;5095093;28;20269;-74
2023/04/18 11:28:43;;;;;;;8.98;8.07;;;17.80;99.90;;;;;;5095086;28;20200;-74
2023/04/18 11:31:10;;;;;;;8.77;7.95;;;17.40;99.90;;;;;;5095204;28;20242;-78
2023/04/18 11:33:37;;;;;;;9.30;7.53;;;17.00;99.90;;;;;;5094394;28;20224;-77
2023/04/18 11:36:05;;;;;;;8.45;7.50;;;16.30;99.90;;;;;;5093999;28;20196;-77
2023/04/18 11:38:32;;;;;;;8.77;7.93;;;15.90;99.90;;;;;;5094530;28;20714;-75
2023/04/18 11:41:01;;;;;;;10.27;8.75;;;15.50;99.90;;;;;;5094711;28;20203;-74
2023/04/18 11:43:28;;;;;;;12.25;8.23;;;15.10;99.90;;;;;;5094975;28;20227;-75
2023/04/18 11:45:56;;;;;;;9.00;8.20;;;14.90;99.90;;;;;;5094908;28;20266;-75
2023/04/18 11:48:33;;;;;;;9.20;8.30;;;14.60;99.90;;;;;;5086980;28;20553;-75
2023/04/18 11:51:00;;;;;;;10.45;8.55;;;14.80;99.90;;;;;;5067352;28;20204;-75
2023/04/18 11:53:34;;;;;;;9.82;8.30;;;15.10;99.90;;;;;;5062162;28;20221;-75
2023/04/18 11:56:02;;;;;;;8.57;7.78;;;15.40;99.90;;;;;;5062774;28;20201;-75
2023/04/18 11:58:32;;;;;;;8.77;7.97;;;16.00;99.90;;;;;;5074393;28;20229;-75
2023/04/18 12:01:00;;;;;;;7.47;6.78;;;16.20;99.90;;;;;;5074478;28;20197;-76
2023/04/18 12:03:28;;;;;;;7.72;7.00;;;16.20;99.90;;;;;;5074264;28;20232;-77
2023/04/18 12:05:59;;;;;;;7.10;6.50;;;16.30;99.90;;;;;;5074071;28;20597;-75
2023/04/18 12:08:26;;;;;;;7.30;6.60;;;16.10;99.90;;;;;;5074091;28;20203;-75
2023/04/18 12:10:54;;;;;;;8.30;7.50;;;15.70;99.90;;;;;;5074102;28;20199;-76
2023/04/18 12:13:25;;;;;;;7.80;6.78;;;15.60;99.90;;;;;;5074612;28;20204;-76
2023/04/18 12:15:51;;;;;;;7.38;6.68;;;15.10;99.90;;;;;;5073963;28;20534;-75
2023/04/18 12:18:19;;;;;;;8.93;7.18;;;14.60;99.90;;;;;;5073950;28;20267;-75
2023/04/18 12:20:50;;;;;;;7.43;6.78;;;14.20;99.90;;;;;;5073860;28;20220;-75
2023/04/18 12:23:31;;;;;;;6.97;6.38;;;14.10;99.90;;;;;;5074173;28;20197;-75
2023/04/18 12:26:02;;;;;;;8.65;6.97;;;13.80;99.90;;;;;;5073946;28;20246;-77
2023/04/18 12:28:29;;;;;;;7.22;6.63;;;13.80;99.90;;;;;;5073745;28;20205;-75
2023/04/18 12:30:56;;;;;;;8.03;7.23;;;13.70;99.90;;;;;;5073631;28;20258;-76
2023/04/18 12:33:23;;;;;;;7.87;7.07;;;13.70;99.90;;;;;;5073810;28;20201;-74
2023/04/18 12:35:52;;;;;;;7.60;6.77;;;13.60;99.90;;;;;;5073543;28;20260;-74
2023/04/18 12:38:21;;;;;;;7.97;7.17;;;13.60;99.90;;;;;;5073364;28;20586;-75